sensor_id;sensor_type;location;lat;lon;timestamp;pressure;altitude;pressure_sealevel;temperature;humidity
33286;BME280;19656;50.096;20.014;2023-04-04T00:13:21;99644.11;;;3.87;52.40
33286;BME280;19656;50.096;20.014;2023-04-04T00:19:21;99644.52;;;3.85;52.48
33286;BME280;19656;50.096;20.014;2023-04-04T00:24:24;99652.22;;;3.79;52.60
33286;BME280;19656;50.096;20.014;2023-04-04T00:29:28;99654.05;;;3.76;52.31
33286;BME280;19656;50.096;20.014;2023-04-04T00:34:32;99652.06;;;3.71;52.86
33286;BME280;19656;50.096;20.014;2023-04-04T00:39:35;99656.19;;;3.68;53.20
33286;BME280;19656;50.096;20.014;2023-04-04T00:44:39;99657.71;;;3.63;53.30
33286;BME280;19656;50.096;20.014;2023-04-04T00:49:43;99660.45;;;3.58;53.15
33286;BME280;19656;50.096;20.014;2023-04-04T00:54:48;99660.56;;;3.53;53.30
33286;BME280;19656;50.096;20.014;2023-04-04T00:59:52;99659.56;;;3.51;53.33
33286;BME280;19656;50.096;20.014;2023-04-04T01:04:55;99659.14;;;3.46;53.27
33286;BME280;19656;50.096;20.014;2023-04-04T01:09:59;99658.69;;;3.36;53.41
33286;BME280;19656;50.096;20.014;2023-04-04T01:15:05;99661.10;;;3.29;53.60
33286;BME280;19656;50.096;20.014;2023-04-04T01:20:14;99661.18;;;3.26;53.83
33286;BME280;19656;50.096;20.014;2023-04-04T01:25:30;99667.48;;;3.27;53.89
33286;BME280;19656;50.096;20.014;2023-04-04T01:30:44;99667.84;;;3.26;53.97
33286;BME280;19656;50.096;20.014;2023-04-04T01:36:19;99668.52;;;3.27;53.98
33286;BME280;19656;50.096;20.014;2023-04-04T01:41:26;99670.42;;;3.28;53.77
33286;BME280;19656;50.096;20.014;2023-04-04T01:46:34;99673.13;;;3.25;53.64
33286;BME280;19656;50.096;20.014;2023-04-04T01:51:40;99678.30;;;3.21;53.73
33286;BME280;19656;50.096;20.014;2023-04-04T01:56:44;99671.45;;;3.21;53.72
33286;BME280;19656;50.096;20.014;2023-04-04T02:01:48;99674.24;;;3.22;53.84
33286;BME280;19656;50.096;20.014;2023-04-04T02:06:52;99671.77;;;3.23;54.02
33286;BME280;19656;50.096;20.014;2023-04-04T02:11:55;99669.33;;;3.23;53.82
33286;BME280;19656;50.096;20.014;2023-04-04T02:16:59;99669.73;;;3.19;53.84
33286;BME280;19656;50.096;20.014;2023-04-04T02:22:03;99668.42;;;3.16;53.86
33286;BME280;19656;50.096;20.014;2023-04-04T02:27:06;99666.80;;;3.18;54.23
33286;BME280;19656;50.096;20.014;2023-04-04T02:32:09;99669.57;;;3.19;54.32
33286;BME280;19656;50.096;20.014;2023-04-04T02:37:13;99669.91;;;3.20;54.39
33286;BME280;19656;50.096;20.014;2023-04-04T02:42:17;99669.96;;;3.17;54.74
33286;BME280;19656;50.096;20.014;2023-04-04T02:47:21;99671.03;;;3.17;54.62
33286;BME280;19656;50.096;20.014;2023-04-04T02:52:24;99671.61;;;3.14;54.56
33286;BME280;19656;50.096;20.014;2023-04-04T02:57:30;99673.27;;;3.10;54.88
33286;BME280;19656;50.096;20.014;2023-04-04T03:02:33;99669.25;;;3.10;54.78
33286;BME280;19656;50.096;20.014;2023-04-04T03:07:37;99663.21;;;3.14;55.01
33286;BME280;19656;50.096;20.014;2023-04-04T03:12:41;99662.44;;;3.25;55.84
33286;BME280;19656;50.096;20.014;2023-04-04T03:17:44;99663.40;;;3.29;55.07
33286;BME280;19656;50.096;20.014;2023-04-04T03:22:49;99659.98;;;3.33;55.11
33286;BME280;19656;50.096;20.014;2023-04-04T03:27:52;99658.31;;;3.37;55.23
33286;BME280;19656;50.096;20.014;2023-04-04T03:32:57;99658.20;;;3.34;54.90
33286;BME280;19656;50.096;20.014;2023-04-04T03:38:01;99655.02;;;3.35;54.90
33286;BME280;19656;50.096;20.014;2023-04-04T03:43:06;99651.46;;;3.37;54.59
33286;BME280;19656;50.096;20.014;2023-04-04T03:48:09;99641.91;;;3.33;54.69
33286;BME280;19656;50.096;20.014;2023-04-04T03:53:14;99641.82;;;3.29;54.51
33286;BME280;19656;50.096;20.014;2023-04-04T03:58:18;99640.36;;;3.24;54.75
33286;BME280;19656;50.096;20.014;2023-04-04T04:03:21;99637.34;;;3.25;55.24
33286;BME280;19656;50.096;20.014;2023-04-04T04:08:25;99631.65;;;3.36;55.81
33286;BME280;19656;50.096;20.014;2023-04-04T04:13:29;99629.26;;;3.35;55.28
33286;BME280;19656;50.096;20.014;2023-04-04T04:18:33;99625.86;;;3.29;55.47
33286;BME280;19656;50.096;20.014;2023-04-04T04:23:38;99626.89;;;3.23;55.52
33286;BME280;19656;50.096;20.014;2023-04-04T04:28:41;99631.70;;;3.19;55.72
33286;BME280;19656;50.096;20.014;2023-04-04T04:33:49;99634.15;;;3.19;55.86
33286;BME280;19656;50.096;20.014;2023-04-04T04:38:54;99632.61;;;3.18;55.86
33286;BME280;19656;50.096;20.014;2023-04-04T04:43:59;99634.42;;;3.15;55.82
33286;BME280;19656;50.096;20.014;2023-04-04T04:49:03;99636.60;;;3.12;56.00
33286;BME280;19656;50.096;20.014;2023-04-04T04:54:07;99634.21;;;3.08;55.82
33286;BME280;19656;50.096;20.014;2023-04-04T04:59:13;99637.76;;;3.07;56.32
33286;BME280;19656;50.096;20.014;2023-04-04T05:04:18;99639.52;;;3.06;56.29
33286;BME280;19656;50.096;20.014;2023-04-04T05:09:38;99640.69;;;3.08;56.47
33286;BME280;19656;50.096;20.014;2023-04-04T05:14:41;99644.04;;;3.09;56.31
33286;BME280;19656;50.096;20.014;2023-04-04T05:19:44;99646.96;;;3.02;56.12
33286;BME280;19656;50.096;20.014;2023-04-04T05:24:51;99646.98;;;3.02;56.14
33286;BME280;19656;50.096;20.014;2023-04-04T05:29:57;99649.18;;;3.05;56.27
33286;BME280;19656;50.096;20.014;2023-04-04T05:35:05;99649.52;;;3.06;56.30
33286;BME280;19656;50.096;20.014;2023-04-04T05:40:10;99655.95;;;3.00;56.33
33286;BME280;19656;50.096;20.014;2023-04-04T05:45:13;99656.66;;;3.00;56.59
33286;BME280;19656;50.096;20.014;2023-04-04T05:50:17;99655.16;;;3.05;56.48
33286;BME280;19656;50.096;20.014;2023-04-04T05:55:23;99658.96;;;3.07;56.68
33286;BME280;19656;50.096;20.014;2023-04-04T06:00:29;99659.07;;;3.11;56.69
33286;BME280;19656;50.096;20.014;2023-04-04T06:05:37;99670.89;;;3.15;56.56
33286;BME280;19656;50.096;20.014;2023-04-04T06:10:41;99671.12;;;3.21;56.71
33286;BME280;19656;50.096;20.014;2023-04-04T06:15:44;99667.23;;;3.30;56.53
33286;BME280;19656;50.096;20.014;2023-04-04T06:20:48;99675.62;;;3.39;56.00
33286;BME280;19656;50.096;20.014;2023-04-04T06:25:52;99674.73;;;3.40;55.46
33286;BME280;19656;50.096;20.014;2023-04-04T06:30:57;99676.58;;;3.44;55.80
33286;BME280;19656;50.096;20.014;2023-04-04T06:36:09;99672.50;;;3.45;55.88
33286;BME280;19656;50.096;20.014;2023-04-04T06:41:13;99671.17;;;3.50;55.71
33286;BME280;19656;50.096;20.014;2023-04-04T06:46:16;99670.98;;;3.58;55.50
33286;BME280;19656;50.096;20.014;2023-04-04T06:51:20;99667.52;;;3.70;55.53
33286;BME280;19656;50.096;20.014;2023-04-04T06:56:24;99664.34;;;3.78;55.21
33286;BME280;19656;50.096;20.014;2023-04-04T07:01:32;99658.67;;;3.87;55.00
33286;BME280;19656;50.096;20.014;2023-04-04T07:06:36;99653.52;;;3.90;54.75
33286;BME280;19656;50.096;20.014;2023-04-04T07:11:40;99663.29;;;3.93;54.49
33286;BME280;19656;50.096;20.014;2023-04-04T07:16:43;99666.16;;;3.97;54.46
33286;BME280;19656;50.096;20.014;2023-04-04T07:21:47;99660.67;;;3.99;54.43
33286;BME280;19656;50.096;20.014;2023-04-04T07:26:50;99663.91;;;4.03;54.41
33286;BME280;19656;50.096;20.014;2023-04-04T07:31:53;99660.57;;;4.10;54.30
33286;BME280;19656;50.096;20.014;2023-04-04T07:36:57;99658.75;;;4.19;54.07
33286;BME280;19656;50.096;20.014;2023-04-04T07:42:00;99657.00;;;4.26;54.18
33286;BME280;19656;50.096;20.014;2023-04-04T07:47:04;99658.26;;;4.31;53.92
33286;BME280;19656;50.096;20.014;2023-04-04T07:58:00;99652.54;;;4.48;53.81
33286;BME280;19656;50.096;20.014;2023-04-04T08:03:05;99650.15;;;4.58;53.66
33286;BME280;19656;50.096;20.014;2023-04-04T08:08:26;99652.42;;;4.71;53.51
33286;BME280;19656;50.096;20.014;2023-04-04T08:13:29;99648.52;;;4.79;52.54
33286;BME280;19656;50.096;20.014;2023-04-04T08:18:33;99645.66;;;4.86;51.93
33286;BME280;19656;50.096;20.014;2023-04-04T08:23:40;99642.03;;;4.95;51.85
33286;BME280;19656;50.096;20.014;2023-04-04T08:28:44;99642.58;;;5.01;51.72
33286;BME280;19656;50.096;20.014;2023-04-04T08:33:47;99633.53;;;5.10;51.44
33286;BME280;19656;50.096;20.014;2023-04-04T08:38:50;99632.30;;;5.15;51.89
33286;BME280;19656;50.096;20.014;2023-04-04T08:43:54;99632.02;;;5.25;51.96
33286;BME280;19656;50.096;20.014;2023-04-04T08:49:00;99629.60;;;5.46;51.84
33286;BME280;19656;50.096;20.014;2023-04-04T08:54:07;99623.67;;;5.55;50.73
33286;BME280;19656;50.096;20.014;2023-04-04T08:59:11;99621.63;;;5.64;49.86
33286;BME280;19656;50.096;20.014;2023-04-04T09:04:18;99613.30;;;5.66;48.99
33286;BME280;19656;50.096;20.014;2023-04-04T09:09:23;99613.34;;;5.64;49.14
33286;BME280;19656;50.096;20.014;2023-04-04T09:14:28;99611.09;;;5.68;48.57
33286;BME280;19656;50.096;20.014;2023-04-04T09:19:32;99604.40;;;5.84;48.27
33286;BME280;19656;50.096;20.014;2023-04-04T09:24:40;99605.85;;;6.00;47.22
33286;BME280;19656;50.096;20.014;2023-04-04T09:35:59;99615.52;;;6.10;45.97
33286;BME280;19656;50.096;20.014;2023-04-04T09:41:07;99614.18;;;6.24;45.18
33286;BME280;19656;50.096;20.014;2023-04-04T09:46:18;99609.27;;;6.28;44.53
33286;BME280;19656;50.096;20.014;2023-04-04T09:51:21;99603.73;;;6.21;43.11
33286;BME280;19656;50.096;20.014;2023-04-04T09:56:26;99600.50;;;6.37;44.45
33286;BME280;19656;50.096;20.014;2023-04-04T10:01:30;99597.44;;;6.53;42.03
33286;BME280;19656;50.096;20.014;2023-04-04T10:06:36;99594.56;;;6.55;42.25
33286;BME280;19656;50.096;20.014;2023-04-04T10:11:39;99596.96;;;6.52;41.57
33286;BME280;19656;50.096;20.014;2023-04-04T10:16:44;99593.15;;;6.40;41.28
33286;BME280;19656;50.096;20.014;2023-04-04T10:21:47;99591.58;;;6.40;41.42
33286;BME280;19656;50.096;20.014;2023-04-04T10:26:51;99583.26;;;6.65;41.19
33286;BME280;19656;50.096;20.014;2023-04-04T10:32:03;99586.08;;;6.74;40.54
33286;BME280;19656;50.096;20.014;2023-04-04T10:37:14;99585.37;;;6.79;39.55
33286;BME280;19656;50.096;20.014;2023-04-04T10:42:18;99580.66;;;6.77;38.95
33286;BME280;19656;50.096;20.014;2023-04-04T10:47:22;99580.94;;;6.75;39.71
33286;BME280;19656;50.096;20.014;2023-04-04T10:52:29;99575.69;;;6.92;39.78
33286;BME280;19656;50.096;20.014;2023-04-04T10:57:40;99573.00;;;7.25;40.01
33286;BME280;19656;50.096;20.014;2023-04-04T11:02:58;99573.80;;;7.41;38.79
33286;BME280;19656;50.096;20.014;2023-04-04T11:08:04;99574.56;;;7.30;38.35
33286;BME280;19656;50.096;20.014;2023-04-04T11:13:26;99575.45;;;7.21;38.83
33286;BME280;19656;50.096;20.014;2023-04-04T11:28:51;99574.98;;;7.11;39.38
33286;BME280;19656;50.096;20.014;2023-04-04T11:34:05;99573.13;;;7.04;39.69
33286;BME280;19656;50.096;20.014;2023-04-04T11:44:31;99571.50;;;7.05;40.36
33286;BME280;19656;50.096;20.014;2023-04-04T11:49:35;99570.62;;;7.09;40.37
33286;BME280;19656;50.096;20.014;2023-04-04T11:54:41;99570.91;;;7.11;40.14
33286;BME280;19656;50.096;20.014;2023-04-04T11:59:47;99566.22;;;7.22;39.64
33286;BME280;19656;50.096;20.014;2023-04-04T12:04:52;99561.05;;;7.41;39.14
33286;BME280;19656;50.096;20.014;2023-04-04T12:09:55;99561.02;;;7.72;38.56
33286;BME280;19656;50.096;20.014;2023-04-04T12:15:00;99551.30;;;7.89;38.31
33286;BME280;19656;50.096;20.014;2023-04-04T12:20:21;99547.83;;;8.04;37.99
33286;BME280;19656;50.096;20.014;2023-04-04T12:25:26;99549.83;;;8.02;37.62
33286;BME280;19656;50.096;20.014;2023-04-04T12:30:30;99546.33;;;7.94;38.08
33286;BME280;19656;50.096;20.014;2023-04-04T12:35:36;99542.63;;;7.93;38.11
33286;BME280;19656;50.096;20.014;2023-04-04T12:40:40;99536.39;;;7.98;38.86
33286;BME280;19656;50.096;20.014;2023-04-04T12:45:44;99527.48;;;8.08;38.69
33286;BME280;19656;50.096;20.014;2023-04-04T12:50:49;99524.84;;;8.04;37.70
33286;BME280;19656;50.096;20.014;2023-04-04T12:55:55;99523.71;;;7.97;37.69
33286;BME280;19656;50.096;20.014;2023-04-04T13:01:02;99522.19;;;8.00;38.62
33286;BME280;19656;50.096;20.014;2023-04-04T13:06:15;99521.59;;;8.09;38.55
33286;BME280;19656;50.096;20.014;2023-04-04T13:11:19;99523.41;;;8.04;38.19
33286;BME280;19656;50.096;20.014;2023-04-04T13:16:33;99513.99;;;8.10;37.91
33286;BME280;19656;50.096;20.014;2023-04-04T13:21:39;99507.65;;;7.89;38.40
33286;BME280;19656;50.096;20.014;2023-04-04T13:26:42;99504.56;;;7.95;39.59
33286;BME280;19656;50.096;20.014;2023-04-04T13:31:46;99511.89;;;7.97;39.63
33286;BME280;19656;50.096;20.014;2023-04-04T13:36:49;99509.34;;;7.78;38.80
33286;BME280;19656;50.096;20.014;2023-04-04T13:41:53;99511.70;;;7.52;38.91
33286;BME280;19656;50.096;20.014;2023-04-04T13:46:56;99517.70;;;7.39;40.00
33286;BME280;19656;50.096;20.014;2023-04-04T13:52:00;99521.43;;;7.26;39.74
33286;BME280;19656;50.096;20.014;2023-04-04T13:57:03;99521.02;;;7.19;40.14
33286;BME280;19656;50.096;20.014;2023-04-04T14:02:06;99518.13;;;7.12;40.86
33286;BME280;19656;50.096;20.014;2023-04-04T14:07:11;99519.23;;;7.19;40.74
33286;BME280;19656;50.096;20.014;2023-04-04T14:12:24;99521.15;;;7.11;39.80
33286;BME280;19656;50.096;20.014;2023-04-04T14:17:56;99516.80;;;7.05;39.59
33286;BME280;19656;50.096;20.014;2023-04-04T14:23:00;99522.87;;;6.99;40.38
33286;BME280;19656;50.096;20.014;2023-04-04T14:28:07;99526.35;;;6.87;40.69
33286;BME280;19656;50.096;20.014;2023-04-04T14:33:12;99533.88;;;6.79;41.18
33286;BME280;19656;50.096;20.014;2023-04-04T14:42:50;99535.38;;;6.68;41.40
33286;BME280;19656;50.096;20.014;2023-04-04T14:47:54;99535.83;;;6.56;41.95
33286;BME280;19656;50.096;20.014;2023-04-04T14:52:59;99538.41;;;6.43;42.09
33286;BME280;19656;50.096;20.014;2023-04-04T14:58:02;99543.41;;;6.27;41.80
33286;BME280;19656;50.096;20.014;2023-04-04T15:03:06;99543.63;;;6.16;41.87
33286;BME280;19656;50.096;20.014;2023-04-04T15:08:11;99537.23;;;6.03;41.48
33286;BME280;19656;50.096;20.014;2023-04-04T15:13:15;99543.47;;;5.96;42.94
33286;BME280;19656;50.096;20.014;2023-04-04T15:18:19;99542.27;;;6.05;42.32
33286;BME280;19656;50.096;20.014;2023-04-04T15:23:23;99541.60;;;5.93;41.96
33286;BME280;19656;50.096;20.014;2023-04-04T15:28:26;99544.23;;;5.83;41.74
33286;BME280;19656;50.096;20.014;2023-04-04T15:33:30;99544.85;;;5.81;41.42
33286;BME280;19656;50.096;20.014;2023-04-04T15:42:59;99551.88;;;5.76;41.48
33286;BME280;19656;50.096;20.014;2023-04-04T15:48:06;99557.20;;;5.79;44.63
33286;BME280;19656;50.096;20.014;2023-04-04T15:53:20;99560.24;;;5.83;41.54
33286;BME280;19656;50.096;20.014;2023-04-04T15:58:40;99566.12;;;5.71;41.74
33286;BME280;19656;50.096;20.014;2023-04-04T16:03:46;99570.36;;;5.65;42.72
33286;BME280;19656;50.096;20.014;2023-04-04T16:09:10;99570.42;;;5.47;41.19
33286;BME280;19656;50.096;20.014;2023-04-04T16:14:19;99576.14;;;5.39;41.65
33286;BME280;19656;50.096;20.014;2023-04-04T16:19:30;99579.84;;;5.34;41.72
33286;BME280;19656;50.096;20.014;2023-04-04T16:24:43;99579.95;;;5.30;41.40
33286;BME280;19656;50.096;20.014;2023-04-04T17:45:30;99641.10;;;4.55;40.84
33286;BME280;19656;50.096;20.014;2023-04-04T17:50:42;99646.61;;;4.46;40.62
33286;BME280;19656;50.096;20.014;2023-04-04T17:55:46;99655.10;;;4.44;41.46
33286;BME280;19656;50.096;20.014;2023-04-04T18:00:51;99661.31;;;4.41;41.49
33286;BME280;19656;50.096;20.014;2023-04-04T18:05:55;99658.19;;;4.40;41.79
33286;BME280;19656;50.096;20.014;2023-04-04T18:10:59;99657.66;;;4.40;41.61
33286;BME280;19656;50.096;20.014;2023-04-04T18:16:03;99659.77;;;4.40;41.69
33286;BME280;19656;50.096;20.014;2023-04-04T18:21:08;99653.48;;;4.45;42.30
33286;BME280;19656;50.096;20.014;2023-04-04T18:26:11;99652.66;;;4.49;41.77
33286;BME280;19656;50.096;20.014;2023-04-04T18:31:15;99656.30;;;4.45;41.60
33286;BME280;19656;50.096;20.014;2023-04-04T18:36:18;99653.74;;;4.43;41.89
33286;BME280;19656;50.096;20.014;2023-04-04T18:41:22;99651.77;;;4.57;43.21
33286;BME280;19656;50.096;20.014;2023-04-04T19:46:07;99650.64;;;4.34;39.87
33286;BME280;19656;50.096;20.014;2023-04-04T19:56:22;99652.16;;;4.49;41.30
33286;BME280;19656;50.096;20.014;2023-04-04T20:01:27;99655.89;;;4.47;40.46
33286;BME280;19656;50.096;20.014;2023-04-04T20:06:31;99653.10;;;4.40;40.27
33286;BME280;19656;50.096;20.014;2023-04-04T20:11:35;99656.77;;;4.34;40.40
33286;BME280;19656;50.096;20.014;2023-04-04T20:16:38;99653.64;;;4.27;40.91
33286;BME280;19656;50.096;20.014;2023-04-04T20:21:42;99657.56;;;4.24;41.13
33286;BME280;19656;50.096;20.014;2023-04-04T20:26:51;99657.45;;;4.22;41.92
33286;BME280;19656;50.096;20.014;2023-04-04T20:32:02;99653.45;;;4.20;41.92
33286;BME280;19656;50.096;20.014;2023-04-04T20:37:09;99651.54;;;4.20;42.02
33286;BME280;19656;50.096;20.014;2023-04-04T20:42:17;99647.19;;;4.18;42.23
33286;BME280;19656;50.096;20.014;2023-04-04T20:52:39;99643.65;;;4.19;42.03
33286;BME280;19656;50.096;20.014;2023-04-04T20:57:45;99642.83;;;4.17;41.50
33286;BME280;19656;50.096;20.014;2023-04-04T21:02:49;99641.50;;;4.13;41.65
33286;BME280;19656;50.096;20.014;2023-04-04T21:07:52;99640.84;;;4.13;41.96
33286;BME280;19656;50.096;20.014;2023-04-04T21:12:58;99635.61;;;4.11;42.07
33286;BME280;19656;50.096;20.014;2023-04-04T21:18:07;99636.04;;;4.08;42.02
33286;BME280;19656;50.096;20.014;2023-04-04T21:33:35;99622.65;;;3.83;43.02
33286;BME280;19656;50.096;20.014;2023-04-04T21:38:40;99621.52;;;3.79;43.63
33286;BME280;19656;50.096;20.014;2023-04-04T21:49:49;99618.85;;;3.59;43.97
33286;BME280;19656;50.096;20.014;2023-04-04T21:54:52;99617.75;;;3.46;44.01
33286;BME280;19656;50.096;20.014;2023-04-04T21:59:56;99612.38;;;3.28;44.27
33286;BME280;19656;50.096;20.014;2023-04-04T22:05:14;99613.54;;;3.17;44.84
33286;BME280;19656;50.096;20.014;2023-04-04T22:10:52;99610.83;;;3.04;45.05
33286;BME280;19656;50.096;20.014;2023-04-04T22:16:18;99611.40;;;2.94;45.39
33286;BME280;19656;50.096;20.014;2023-04-04T23:25:39;99593.79;;;2.66;47.29
33286;BME280;19656;50.096;20.014;2023-04-04T23:37:44;99585.34;;;2.50;46.92
33286;BME280;19656;50.096;20.014;2023-04-04T23:43:01;99581.10;;;2.44;47.19
33286;BME280;19656;50.096;20.014;2023-04-04T23:48:50;99584.44;;;2.35;47.08
33286;BME280;19656;50.096;20.014;2023-04-04T23:53:59;99580.59;;;2.34;46.99
